createdAt,value
2022-11-10T00:04:01.195Z,99.06
2022-11-10T00:06:29.132Z,99.57
2022-11-10T00:09:01.859Z,99.32
2022-11-10T00:11:36.142Z,99.16
2022-11-10T00:14:24.453Z,98.71
2022-11-10T00:17:01.278Z,99.13
2022-11-10T00:19:41.314Z,98.91
2022-11-10T00:22:13.356Z,98.92
2022-11-10T00:24:42.313Z,99.56
2022-11-10T00:27:15.239Z,99.76
2022-11-10T00:29:44.606Z,99.88
2022-11-10T00:32:22.732Z,99.64
2022-11-10T00:34:58.059Z,99.98
2022-11-10T00:37:25.925Z,100.00
2022-11-10T00:39:56.280Z,99.89
2022-11-10T00:42:24.933Z,100.00
2022-11-10T00:45:12.855Z,100.00
2022-11-10T00:47:43.939Z,100.00
2022-11-10T00:50:12.507Z,100.00
2022-11-10T00:52:39.904Z,100.00
2022-11-10T00:55:10.190Z,100.00
2022-11-10T00:57:41.469Z,100.00
2022-11-10T01:00:10.611Z,100.00
2022-11-10T01:02:38.702Z,100.00
2022-11-10T01:05:11.324Z,100.00
2022-11-10T01:07:42.261Z,100.00
2022-11-10T01:10:12.623Z,100.00
2022-11-10T01:12:40.993Z,100.00
2022-11-10T01:15:11.827Z,100.00
2022-11-10T01:17:45.882Z,100.00
2022-11-10T01:20:13.028Z,100.00
2022-11-10T01:22:41.005Z,100.00
2022-11-10T01:25:09.172Z,100.00
2022-11-10T01:27:40.812Z,100.00
2022-11-10T01:30:10.131Z,100.00
2022-11-10T01:32:46.423Z,100.00
2022-11-10T01:35:15.748Z,100.00
2022-11-10T01:37:54.174Z,100.00
2022-11-10T01:40:23.844Z,100.00
2022-11-10T01:42:56.972Z,100.00
2022-11-10T01:45:45.636Z,100.00
2022-11-10T01:48:44.101Z,100.00
2022-11-10T01:51:31.236Z,100.00
2022-11-10T01:54:06.158Z,100.00
2022-11-10T01:56:39.815Z,100.00
2022-11-10T01:59:17.452Z,100.00
2022-11-10T02:01:51.569Z,100.00
2022-11-10T02:07:19.225Z,100.00
2022-11-10T02:12:40.191Z,100.00
2022-11-10T02:15:12.544Z,100.00
2022-11-10T02:17:44.964Z,100.00
2022-11-10T02:20:16.471Z,100.00
2022-11-10T02:22:51.847Z,100.00
2022-11-10T02:25:30.437Z,100.00
2022-11-10T02:27:57.283Z,100.00
2022-11-10T02:30:29.288Z,100.00
2022-11-10T02:32:56.389Z,100.00
2022-11-10T02:35:27.533Z,100.00
2022-11-10T02:38:06.861Z,100.00
2022-11-10T02:40:34.025Z,100.00
2022-11-10T02:43:09.681Z,100.00
2022-11-10T02:45:43.186Z,100.00
2022-11-10T02:48:15.833Z,100.00
2022-11-10T02:50:46.063Z,100.00
2022-11-10T02:53:12.988Z,100.00
2022-11-10T02:55:47.014Z,100.00
2022-11-10T02:58:14.110Z,100.00
2022-11-10T03:00:41.944Z,100.00
2022-11-10T03:03:14.618Z,100.00
2022-11-10T03:05:51.664Z,100.00
2022-11-10T03:08:20.592Z,100.00
2022-11-10T03:10:55.552Z,100.00
2022-11-10T03:13:51.723Z,100.00
2022-11-10T03:16:28.748Z,100.00
2022-11-10T03:19:01.959Z,100.00
2022-11-10T03:21:31.256Z,100.00
2022-11-10T03:24:05.678Z,100.00
2022-11-10T03:29:14.898Z,100.00
2022-11-10T03:31:46.047Z,100.00
2022-11-10T03:34:13.705Z,100.00
2022-11-10T03:36:42.707Z,100.00
2022-11-10T03:39:16.196Z,100.00
2022-11-10T03:41:47.216Z,100.00
2022-11-10T03:44:17.630Z,100.00
2022-11-10T03:49:40.840Z,100.00
2022-11-10T03:52:07.685Z,100.00
2022-11-10T03:54:34.509Z,100.00
2022-11-10T03:57:01.164Z,100.00
2022-11-10T03:59:29.717Z,100.00
2022-11-10T04:02:00.948Z,100.00
2022-11-10T04:04:48.018Z,100.00
2022-11-10T04:07:34.468Z,100.00
2022-11-10T04:10:06.468Z,100.00
2022-11-10T04:12:55.841Z,100.00
2022-11-10T04:15:42.732Z,100.00
2022-11-10T04:18:30.083Z,100.00
2022-11-10T04:21:02.570Z,100.00
2022-11-10T04:23:36.481Z,100.00
2022-11-10T04:26:28.696Z,100.00
2022-11-10T04:29:04.368Z,100.00
2022-11-10T04:31:37.677Z,100.00
2022-11-10T04:34:07.640Z,100.00
2022-11-10T04:36:40.152Z,100.00
2022-11-10T04:39:11.218Z,100.00
2022-11-10T04:41:44.526Z,100.00
2022-11-10T04:44:12.178Z,100.00
2022-11-10T04:46:44.359Z,100.00
2022-11-10T04:49:25.902Z,100.00
2022-11-10T04:52:04.788Z,100.00
2022-11-10T04:54:44.355Z,100.00
2022-11-10T04:57:13.261Z,100.00
2022-11-10T04:59:44.244Z,100.00
2022-11-10T05:02:16.485Z,100.00
2022-11-10T05:04:44.149Z,100.00
2022-11-10T05:07:14.791Z,100.00
2022-11-10T05:09:49.594Z,100.00
2022-11-10T05:12:24.636Z,100.00
2022-11-10T05:17:41.497Z,100.00
2022-11-10T05:20:10.639Z,100.00
2022-11-10T05:22:38.170Z,100.00
2022-11-10T05:25:09.189Z,100.00
2022-11-10T05:27:53.197Z,100.00
2022-11-10T05:30:23.530Z,100.00
2022-11-10T05:32:52.555Z,100.00
2022-11-10T05:35:24.374Z,100.00
2022-11-10T05:37:51.586Z,100.00
2022-11-10T05:40:33.661Z,100.00
2022-11-10T05:43:04.405Z,100.00
2022-11-10T05:45:36.676Z,100.00
2022-11-10T05:48:04.805Z,100.00
2022-11-10T05:50:33.324Z,100.00
2022-11-10T05:53:05.054Z,100.00
2022-11-10T05:55:31.732Z,100.00
2022-11-10T06:00:55.972Z,100.00
2022-11-10T06:03:25.728Z,100.00
2022-11-10T06:05:55.122Z,100.00
2022-11-10T06:08:24.727Z,100.00
2022-11-10T06:10:55.523Z,100.00
2022-11-10T06:13:44.477Z,100.00
2022-11-10T06:16:16.246Z,100.00
2022-11-10T06:18:53.431Z,100.00
2022-11-10T06:22:06.411Z,100.00
2022-11-10T06:24:41.252Z,100.00
2022-11-10T06:30:14.728Z,100.00
2022-11-10T06:33:06.963Z,100.00
2022-11-10T06:35:41.348Z,100.00
2022-11-10T06:38:31.098Z,100.00
2022-11-10T06:43:43.911Z,100.00
2022-11-10T06:46:19.421Z,100.00
2022-11-10T06:48:57.899Z,100.00
2022-11-10T06:51:32.860Z,100.00
2022-11-10T06:54:00.837Z,100.00
2022-11-10T06:56:28.093Z,100.00
2022-11-10T06:59:05.877Z,100.00
2022-11-10T07:01:45.016Z,100.00
2022-11-10T07:04:20.370Z,100.00
2022-11-10T07:07:01.340Z,100.00
2022-11-10T07:09:36.365Z,100.00
2022-11-10T07:12:04.469Z,100.00
2022-11-10T07:14:38.248Z,100.00
2022-11-10T07:17:09.604Z,100.00
2022-11-10T07:19:45.428Z,100.00
2022-11-10T07:25:12.998Z,100.00
2022-11-10T07:28:13.614Z,100.00
2022-11-10T07:30:53.485Z,100.00
2022-11-10T07:33:31.762Z,100.00
2022-11-10T07:36:04.356Z,100.00
2022-11-10T07:38:46.530Z,100.00
2022-11-10T07:41:21.090Z,100.00
2022-11-10T07:46:31.134Z,100.00
2022-11-10T07:48:58.462Z,100.00
2022-11-10T07:51:32.620Z,100.00
2022-11-10T07:54:03.421Z,100.00
2022-11-10T07:56:48.546Z,100.00
2022-11-10T07:59:39.492Z,100.00
2022-11-10T08:02:13.752Z,100.00
2022-11-10T08:04:43.449Z,100.00
2022-11-10T08:07:22.061Z,100.00
2022-11-10T08:09:53.095Z,100.00
2022-11-10T08:12:23.252Z,100.00
2022-11-10T08:14:55.964Z,100.00
2022-11-10T08:17:26.800Z,100.00
2022-11-10T08:20:00.940Z,100.00
2022-11-10T08:22:30.360Z,100.00
2022-11-10T08:25:01.741Z,99.93
2022-11-10T08:27:34.442Z,99.64
2022-11-10T08:30:03.103Z,99.68
2022-11-10T08:32:45.642Z,99.16
2022-11-10T08:38:10.418Z,99.15
2022-11-10T08:43:34.528Z,98.85
2022-11-10T08:46:03.482Z,98.63
2022-11-10T08:48:37.589Z,98.70
2022-11-10T08:51:09.327Z,98.23
2022-11-10T08:53:41.683Z,98.79
2022-11-10T08:59:02.176Z,98.69
2022-11-10T09:01:28.748Z,98.40
2022-11-10T09:04:00.230Z,98.65
2022-11-10T09:06:30.900Z,98.04
2022-11-10T09:09:03.977Z,97.36
2022-11-10T09:11:35.718Z,97.19
2022-11-10T09:14:05.431Z,96.44
2022-11-10T09:21:59.728Z,96.22
2022-11-10T09:24:32.638Z,96.09
2022-11-10T09:26:59.970Z,96.14
2022-11-10T09:29:27.607Z,96.04
2022-11-10T09:31:59.218Z,96.14
2022-11-10T09:34:31.077Z,95.73
2022-11-10T09:37:14.765Z,95.80
2022-11-10T09:39:45.709Z,95.88
2022-11-10T09:42:43.553Z,95.67
2022-11-10T09:45:39.388Z,95.45
2022-11-10T09:48:44.436Z,95.03
2022-11-10T09:51:48.023Z,94.93
2022-11-10T09:54:37.563Z,94.76
2022-11-10T09:57:14.651Z,94.81
2022-11-10T09:59:45.424Z,94.53
2022-11-10T10:02:28.140Z,94.45
2022-11-10T10:05:21.347Z,94.24
2022-11-10T10:08:15.626Z,94.51
2022-11-10T10:11:00.163Z,94.28
2022-11-10T10:13:45.609Z,93.41
2022-11-10T10:16:41.768Z,93.49
2022-11-10T10:19:23.337Z,93.56
2022-11-10T10:22:19.459Z,93.10
2022-11-10T10:27:35.268Z,92.90
2022-11-10T10:30:15.377Z,92.96
2022-11-10T10:32:49.487Z,92.84
2022-11-10T10:35:28.594Z,92.72
2022-11-10T10:37:58.006Z,91.66
2022-11-10T10:43:22.064Z,92.20
2022-11-10T10:46:13.024Z,92.39
2022-11-10T10:48:41.042Z,91.93
2022-11-10T10:51:07.836Z,92.41
2022-11-10T10:54:01.549Z,92.63
2022-11-10T10:56:35.113Z,92.61
2022-11-10T10:59:17.287Z,92.37
2022-11-10T11:01:45.829Z,92.30
2022-11-10T11:04:42.967Z,92.03
2022-11-10T11:07:32.988Z,92.15
2022-11-10T11:10:03.749Z,92.21
2022-11-10T11:12:41.831Z,91.82
2022-11-10T11:15:29.817Z,91.67
2022-11-10T11:18:22.475Z,91.39
2022-11-10T11:21:03.141Z,91.71
2022-11-10T11:23:47.537Z,91.87
2022-11-10T11:26:59.367Z,91.80
2022-11-10T11:29:52.323Z,91.75
2022-11-10T11:32:35.515Z,91.90
2022-11-10T11:35:39.834Z,91.00
2022-11-10T11:38:23.426Z,91.12
2022-11-10T11:41:21.904Z,90.92
2022-11-10T11:44:21.015Z,90.72
2022-11-10T11:47:04.142Z,90.86
2022-11-10T11:49:47.280Z,91.17
2022-11-10T11:52:48.367Z,90.95
2022-11-10T11:55:26.199Z,90.77
2022-11-10T11:58:12.121Z,91.10
2022-11-10T12:01:21.460Z,90.75
2022-11-10T12:04:26.987Z,90.51
2022-11-10T12:07:04.749Z,90.56
2022-11-10T12:10:11.470Z,90.45
2022-11-10T12:12:57.008Z,90.40
2022-11-10T12:16:15.520Z,90.05
2022-11-10T12:19:12.005Z,89.96
2022-11-10T12:21:47.520Z,89.68
2022-11-10T12:24:50.920Z,89.36
2022-11-10T12:27:58.450Z,89.65
2022-11-10T12:30:35.833Z,89.45
2022-11-10T12:33:13.652Z,89.42
2022-11-10T12:35:47.035Z,89.91
2022-11-10T12:38:34.059Z,89.64
2022-11-10T12:41:11.181Z,89.90
2022-11-10T12:43:47.501Z,89.72
2022-11-10T12:46:19.738Z,89.58
2022-11-10T12:49:20.734Z,89.79
2022-11-10T12:52:04.539Z,89.51
2022-11-10T12:54:36.212Z,90.02
2022-11-10T12:57:19.298Z,89.86
2022-11-10T12:59:57.263Z,89.59
2022-11-10T13:02:41.775Z,89.71
2022-11-10T13:05:34.523Z,89.51
2022-11-10T13:08:24.121Z,89.01
2022-11-10T13:11:05.725Z,88.92
2022-11-10T13:13:59.679Z,89.29
2022-11-10T13:16:56.505Z,88.90
2022-11-10T13:19:40.067Z,89.10
2022-11-10T13:22:13.220Z,88.80
2022-11-10T13:24:47.388Z,88.84
2022-11-10T13:27:41.276Z,88.63
2022-11-10T13:30:13.208Z,88.69
2022-11-10T13:32:40.333Z,88.37
2022-11-10T13:35:51.170Z,88.06
2022-11-10T13:41:27.360Z,87.47
2022-11-10T13:44:00.962Z,87.93
2022-11-10T13:47:00.188Z,87.95
2022-11-10T13:50:00.801Z,87.30
2022-11-10T13:52:59.358Z,87.55
2022-11-10T13:55:26.279Z,87.27
2022-11-10T13:58:27.208Z,87.83
2022-11-10T14:01:40.098Z,87.61
2022-11-10T14:04:08.633Z,87.47
2022-11-10T14:06:56.203Z,87.53
2022-11-10T14:13:08.953Z,87.66
2022-11-10T14:16:08.204Z,88.10
2022-11-10T14:18:52.928Z,88.61
2022-11-10T14:21:33.088Z,87.65
2022-11-10T14:24:30.082Z,87.95
2022-11-10T14:27:25.593Z,87.79
2022-11-10T14:30:28.054Z,87.79
2022-11-10T14:32:59.810Z,87.79
2022-11-10T14:35:38.718Z,88.45
2022-11-10T14:38:44.937Z,87.68
2022-11-10T14:44:28.544Z,87.58
2022-11-10T14:47:03.580Z,87.81
2022-11-10T14:49:40.482Z,87.70
2022-11-10T14:54:57.256Z,87.70
2022-11-10T14:57:28.844Z,87.80
2022-11-10T15:00:07.966Z,88.37
2022-11-10T15:05:25.917Z,87.59
2022-11-10T15:07:58.937Z,87.84
2022-11-10T15:10:44.591Z,87.28
2022-11-10T15:13:37.921Z,87.69
2022-11-10T15:19:27.002Z,87.49
2022-11-10T15:21:54.226Z,87.11
2022-11-10T15:24:26.171Z,87.09
2022-11-10T15:26:52.875Z,87.25
2022-11-10T15:29:22.203Z,87.42
2022-11-10T15:31:50.121Z,87.00
2022-11-10T15:34:47.648Z,86.63
2022-11-10T15:37:31.564Z,86.69
2022-11-10T15:40:29.333Z,86.69
2022-11-10T15:43:08.618Z,86.98
2022-11-10T15:45:35.648Z,86.98
2022-11-10T15:48:02.082Z,86.83
2022-11-10T15:50:28.599Z,87.09
2022-11-10T15:52:55.001Z,86.91
2022-11-10T15:55:22.811Z,87.36
2022-11-10T15:57:49.426Z,87.59
2022-11-10T16:00:16.185Z,87.41
2022-11-10T16:02:42.973Z,87.35
2022-11-10T16:05:11.829Z,87.40
2022-11-10T16:07:38.436Z,87.35
2022-11-10T16:10:06.145Z,87.28
2022-11-10T16:12:32.733Z,87.04
2022-11-10T16:14:59.902Z,87.45
2022-11-10T16:17:26.460Z,87.50
2022-11-10T16:19:52.957Z,87.24
2022-11-10T16:22:19.428Z,87.45
2022-11-10T16:24:46.164Z,87.17
2022-11-10T16:27:14.522Z,87.27
2022-11-10T16:29:42.455Z,87.33
2022-11-10T16:32:11.572Z,87.84
2022-11-10T16:34:37.980Z,87.40
2022-11-10T16:37:04.438Z,87.28
2022-11-10T16:39:31.790Z,87.36
2022-11-10T16:41:58.311Z,86.77
2022-11-10T16:44:25.677Z,87.06
2022-11-10T16:46:58.535Z,86.72
2022-11-10T16:49:36.950Z,86.69
2022-11-10T16:52:11.735Z,86.41
2022-11-10T16:54:38.291Z,86.22
2022-11-10T16:57:16.741Z,85.77
2022-11-10T16:59:45.596Z,85.43
2022-11-10T17:02:31.234Z,85.09
2022-11-10T17:04:58.336Z,85.39
2022-11-10T17:07:26.903Z,85.14
2022-11-10T17:09:53.730Z,85.11
2022-11-10T17:12:20.383Z,84.51
2022-11-10T17:14:47.281Z,84.20
2022-11-10T17:17:18.458Z,84.70
2022-11-10T17:19:54.311Z,84.71
2022-11-10T17:22:22.671Z,84.73
2022-11-10T17:24:56.026Z,84.70
2022-11-10T17:27:22.706Z,84.59
2022-11-10T17:29:55.395Z,84.33
2022-11-10T17:32:43.154Z,84.41
2022-11-10T17:35:09.023Z,84.77
2022-11-10T17:37:37.038Z,84.98
2022-11-10T17:40:21.167Z,85.36
2022-11-10T17:42:48.454Z,84.96
2022-11-10T17:45:20.173Z,85.42
2022-11-10T17:47:48.256Z,85.33
2022-11-10T17:50:19.658Z,84.90
2022-11-10T17:52:47.223Z,85.03
2022-11-10T17:55:22.050Z,85.30
2022-11-10T17:57:51.348Z,85.12
2022-11-10T18:00:19.284Z,84.56
2022-11-10T18:02:51.236Z,85.38
2022-11-10T18:05:21.801Z,85.95
2022-11-10T18:07:59.034Z,85.16
2022-11-10T18:10:25.602Z,84.95
2022-11-10T18:12:52.080Z,85.28
2022-11-10T18:15:26.470Z,85.36
2022-11-10T18:17:58.489Z,85.14
2022-11-10T18:20:26.616Z,85.77
2022-11-10T18:22:55.210Z,85.71
2022-11-10T18:25:39.244Z,85.42
2022-11-10T18:30:49.995Z,85.98
2022-11-10T18:33:16.471Z,85.79
2022-11-10T18:35:42.998Z,85.51
2022-11-10T18:38:11.775Z,85.69
2022-11-10T18:40:38.230Z,85.97
2022-11-10T18:43:07.667Z,85.93
2022-11-10T18:45:36.830Z,86.00
2022-11-10T18:48:04.529Z,86.50
2022-11-10T18:50:37.696Z,86.25
2022-11-10T18:53:05.724Z,86.77
2022-11-10T18:55:32.265Z,86.60
2022-11-10T18:57:59.703Z,86.85
2022-11-10T19:00:26.144Z,87.25
2022-11-10T19:02:52.557Z,87.02
2022-11-10T19:05:19.166Z,87.35
2022-11-10T19:07:47.122Z,87.01
2022-11-10T19:10:13.682Z,87.50
2022-11-10T19:12:40.074Z,87.54
2022-11-10T19:15:07.046Z,87.08
2022-11-10T19:17:33.466Z,87.50
2022-11-10T19:19:59.916Z,87.37
2022-11-10T19:22:29.951Z,87.37
2022-11-10T19:25:12.318Z,87.09
2022-11-10T19:27:38.808Z,86.89
2022-11-10T19:30:08.507Z,86.99
2022-11-10T19:32:35.684Z,87.42
2022-11-10T19:35:04.375Z,87.45
2022-11-10T19:37:34.610Z,87.40
2022-11-10T19:40:13.417Z,87.50
2022-11-10T19:42:43.298Z,87.39
2022-11-10T19:45:09.986Z,87.50
2022-11-10T19:47:39.178Z,87.83
2022-11-10T19:50:07.274Z,87.92
2022-11-10T19:52:33.993Z,88.09
2022-11-10T19:55:00.535Z,88.21
2022-11-10T19:57:28.310Z,88.00
2022-11-10T19:59:55.815Z,88.36
2022-11-10T20:02:22.455Z,88.85
2022-11-10T20:05:10.490Z,88.79
2022-11-10T20:07:55.920Z,88.75
2022-11-10T20:10:22.932Z,88.46
2022-11-10T20:12:49.718Z,89.27
2022-11-10T20:15:16.492Z,89.14
2022-11-10T20:17:43.217Z,89.59
2022-11-10T20:20:09.783Z,89.37
2022-11-10T20:22:39.398Z,89.45
2022-11-10T20:25:06.428Z,89.50
2022-11-10T20:27:33.058Z,89.78
2022-11-10T20:30:01.129Z,89.74
2022-11-10T20:32:33.480Z,89.55
2022-11-10T20:35:00.669Z,89.98
2022-11-10T20:37:27.257Z,90.24
2022-11-10T20:39:53.885Z,90.19
2022-11-10T20:42:20.609Z,90.23
2022-11-10T20:44:47.241Z,90.18
2022-11-10T20:47:14.070Z,90.49
2022-11-10T20:49:40.631Z,90.88
2022-11-10T20:52:07.324Z,90.56
2022-11-10T20:54:34.140Z,91.04
2022-11-10T20:57:00.712Z,91.31
2022-11-10T20:59:27.832Z,90.70
2022-11-10T21:01:54.842Z,91.61
2022-11-10T21:04:22.735Z,91.54
2022-11-10T21:06:49.407Z,91.24
2022-11-10T21:09:16.767Z,91.32
2022-11-10T21:12:01.973Z,91.37
2022-11-10T21:14:29.019Z,91.47
2022-11-10T21:17:02.852Z,91.44
2022-11-10T21:19:37.150Z,91.61
2022-11-10T21:22:03.719Z,91.47
2022-11-10T21:24:30.807Z,91.87
2022-11-10T21:26:57.937Z,91.54
2022-11-10T21:29:24.709Z,91.67
2022-11-10T21:31:51.457Z,92.27
2022-11-10T21:34:20.413Z,91.86
2022-11-10T21:36:48.668Z,92.33
2022-11-10T21:39:15.428Z,92.94
2022-11-10T21:41:42.306Z,92.41
2022-11-10T21:44:09.660Z,91.99
2022-11-10T21:46:37.339Z,92.77
2022-11-10T21:49:07.699Z,92.97
2022-11-10T21:51:34.942Z,93.39
2022-11-10T21:54:06.472Z,92.93
2022-11-10T21:56:34.336Z,92.97
2022-11-10T21:59:00.907Z,92.94
2022-11-10T22:01:28.054Z,93.40
2022-11-10T22:03:54.734Z,93.24
2022-11-10T22:06:21.979Z,93.13
2022-11-10T22:08:49.196Z,93.02
2022-11-10T22:11:39.313Z,93.33
2022-11-10T22:14:35.661Z,93.46
2022-11-10T22:17:23.334Z,93.20
2022-11-10T22:19:50.186Z,92.91
2022-11-10T22:22:16.723Z,92.90
2022-11-10T22:24:43.302Z,93.81
2022-11-10T22:27:11.345Z,93.85
2022-11-10T22:29:37.906Z,93.47
2022-11-10T22:32:04.735Z,93.42
2022-11-10T22:34:32.431Z,93.41
2022-11-10T22:37:01.950Z,93.59
2022-11-10T22:39:51.571Z,93.71
2022-11-10T22:42:36.731Z,93.88
2022-11-10T22:45:04.094Z,93.83
2022-11-10T22:47:50.589Z,93.25
2022-11-10T22:50:17.761Z,93.23
2022-11-10T22:52:45.927Z,93.31
2022-11-10T22:55:12.946Z,92.95
2022-11-10T22:57:41.634Z,93.48
2022-11-10T23:00:11.954Z,92.99
2022-11-10T23:02:39.033Z,93.40
2022-11-10T23:05:07.018Z,92.96
2022-11-10T23:07:35.006Z,93.21
2022-11-10T23:10:01.893Z,93.17
2022-11-10T23:12:29.678Z,92.79
2022-11-10T23:14:56.384Z,92.99
2022-11-10T23:17:23.156Z,92.84
2022-11-10T23:19:49.806Z,93.47
2022-11-10T23:22:16.938Z,92.94
2022-11-10T23:24:43.552Z,92.90
2022-11-10T23:27:10.200Z,93.31
2022-11-10T23:29:36.842Z,93.64
2022-11-10T23:32:03.762Z,93.41
2022-11-10T23:34:30.509Z,92.96
2022-11-10T23:36:57.010Z,93.38
2022-11-10T23:39:24.202Z,93.25
2022-11-10T23:41:52.208Z,93.06
2022-11-10T23:44:18.855Z,92.68
2022-11-10T23:46:45.498Z,93.14
2022-11-10T23:49:12.254Z,92.99
2022-11-10T23:51:41.875Z,93.86
2022-11-10T23:54:08.778Z,93.22
2022-11-10T23:56:35.497Z,93.50
2022-11-10T23:59:03.717Z,93.79
